Kasane, Kasane Airport (FBKE)

NameKasane Airport
CityKasane
CountryBotswana
ICAOFBKE
IATABBK
Altitude1003 m
CoordinatesGoogle Map
Live Air TrafficLiveATC.net
METARFBKE 251700Z 14003KT CAVOK 21/12 Q1017
2020-04-25 17:00:00 Wind: Southeast (140°) 1.54 m/s - Visibility: > 10000 m - Weather: CAVOK - Temperature: 21 °C - Dew point: 12 °C - Humidity: 56.6% - Pressure: 1017 hPa

Sorry, no flights used the airport in this database.